createdAt,value
2018-07-09T00:00:55.997Z,69.61
2018-07-09T00:01:55.990Z,69.31
2018-07-09T00:02:55.979Z,69.41
2018-07-09T00:03:55.988Z,69.81
2018-07-09T00:04:55.956Z,69.78
2018-07-09T00:05:55.941Z,70.12
2018-07-09T00:06:55.958Z,69.61
2018-07-09T00:07:55.921Z,69.41
2018-07-09T00:08:55.900Z,70.15
2018-07-09T00:09:55.920Z,70.01
2018-07-09T00:10:55.886Z,70.42
2018-07-09T00:11:55.867Z,69.81
2018-07-09T00:12:55.864Z,69.64
2018-07-09T00:13:55.849Z,70.42
2018-07-09T00:14:55.868Z,69.92
2018-07-09T00:15:55.823Z,69.81
2018-07-09T00:16:55.809Z,69.71
2018-07-09T00:17:55.807Z,70.01
2018-07-09T00:18:55.787Z,70.45
2018-07-09T00:19:55.806Z,70.62
2018-07-09T00:20:55.769Z,70.12
2018-07-09T00:21:55.758Z,70.05
2018-07-09T00:22:55.753Z,69.92
2018-07-09T00:23:55.730Z,70.52
2018-07-09T00:24:55.744Z,69.54
2018-07-09T00:25:55.712Z,70.45
2018-07-09T00:26:55.695Z,71.06
2018-07-09T00:27:55.693Z,70.65
2018-07-09T00:28:55.676Z,70.65
2018-07-09T00:29:55.691Z,70.83
2018-07-09T00:30:55.658Z,70.65
2018-07-09T00:31:55.646Z,70.65
2018-07-09T00:32:55.630Z,70.56
2018-07-09T00:33:55.621Z,70.35
2018-07-09T00:34:55.628Z,70.45
2018-07-09T00:35:55.599Z,70.45
2018-07-09T00:36:55.588Z,70.96
2018-07-09T00:37:55.575Z,70.76
2018-07-09T00:38:55.563Z,69.84
2018-07-09T00:39:55.577Z,70.39
2018-07-09T00:40:55.536Z,70.56
2018-07-09T00:41:55.537Z,70.96
2018-07-09T00:42:55.514Z,71.16
2018-07-09T00:43:55.507Z,71.09
2018-07-09T00:44:55.525Z,71.26
2018-07-09T00:45:55.484Z,71.50
2018-07-09T00:46:55.469Z,71.40
2018-07-09T00:47:55.464Z,71.60
2018-07-09T00:48:55.446Z,71.40
2018-07-09T00:49:55.442Z,71.40
2018-07-09T00:50:55.455Z,71.91
2018-07-09T00:51:55.412Z,71.94
2018-07-09T00:52:55.409Z,71.40
2018-07-09T00:53:55.389Z,71.70
2018-07-09T00:54:55.384Z,71.80
2018-07-09T00:55:55.388Z,72.11
2018-07-09T00:56:55.361Z,71.91
2018-07-09T00:57:55.343Z,72.01
2018-07-09T00:58:55.330Z,72.55
2018-07-09T00:59:55.327Z,72.75
2018-07-09T01:00:55.341Z,73.16
2018-07-09T01:01:55.304Z,72.96
2018-07-09T01:02:55.287Z,72.85
2018-07-09T01:03:55.278Z,73.16
2018-07-09T01:04:55.264Z,72.85
2018-07-09T01:05:55.256Z,72.85
2018-07-09T01:06:55.262Z,73.16
2018-07-09T01:07:55.232Z,72.96
2018-07-09T01:08:55.225Z,72.96
2018-07-09T01:09:55.204Z,72.65
2018-07-09T01:10:55.199Z,73.16
2018-07-09T01:11:55.209Z,73.16
2018-07-09T01:12:55.170Z,73.26
2018-07-09T01:13:55.157Z,73.06
2018-07-09T01:14:55.146Z,72.85
2018-07-09T01:15:55.145Z,72.14
2018-07-09T01:16:55.147Z,71.44
2018-07-09T01:17:55.121Z,71.84
2018-07-09T01:18:55.144Z,72.25
2018-07-09T01:19:55.095Z,72.04
2018-07-09T01:20:55.086Z,71.97
2018-07-09T01:21:55.067Z,72.28
2018-07-09T01:22:55.071Z,72.58
2018-07-09T01:23:55.043Z,73.09
2018-07-09T01:24:55.076Z,73.19
2018-07-09T01:25:55.023Z,72.28
2018-07-09T01:26:55.016Z,72.99
2018-07-09T01:27:55.003Z,72.89
2018-07-09T01:28:55.000Z,72.78
2018-07-09T01:29:54.979Z,72.99
2018-07-09T01:30:54.997Z,73.22
2018-07-09T01:31:54.955Z,72.92
2018-07-09T01:32:54.940Z,73.02
2018-07-09T01:33:54.942Z,73.02
2018-07-09T01:34:54.927Z,73.02
2018-07-09T01:35:54.907Z,73.22
2018-07-09T01:36:54.926Z,73.22
2018-07-09T01:37:54.891Z,73.53
2018-07-09T01:38:54.885Z,73.22
2018-07-09T01:39:54.862Z,73.43
2018-07-09T01:40:54.860Z,73.02
2018-07-09T01:41:54.869Z,73.33
2018-07-09T01:42:54.832Z,73.06
2018-07-09T01:43:54.819Z,73.33
2018-07-09T01:44:54.811Z,73.57
2018-07-09T01:45:54.794Z,73.67
2018-07-09T01:46:54.793Z,73.97
2018-07-09T01:47:54.798Z,73.97
2018-07-09T01:48:54.763Z,73.97
2018-07-09T01:49:54.756Z,73.97
2018-07-09T01:50:54.735Z,74.38
2018-07-09T01:51:54.761Z,74.21
2018-07-09T01:52:54.717Z,73.91
2018-07-09T01:53:54.709Z,74.41
2018-07-09T01:54:54.695Z,74.82
2018-07-09T01:55:54.680Z,74.72
2018-07-09T01:56:54.674Z,74.62
2018-07-09T01:57:54.691Z,74.92
2018-07-09T01:58:54.685Z,74.82
2018-07-09T01:59:54.631Z,75.84
2018-07-09T02:00:54.628Z,75.33
2018-07-09T02:01:54.610Z,75.57
2018-07-09T02:02:54.601Z,75.77
2018-07-09T02:03:54.617Z,74.96
2018-07-09T02:04:54.574Z,75.57
2018-07-09T02:05:54.567Z,75.98
2018-07-09T02:06:54.554Z,75.98
2018-07-09T02:07:54.539Z,75.87
2018-07-09T02:08:54.565Z,76.28
2018-07-09T02:09:54.523Z,76.48
2018-07-09T02:10:54.514Z,76.07
2018-07-09T02:11:54.493Z,76.21
2018-07-09T02:12:54.490Z,76.18
2018-07-09T02:13:54.474Z,76.11
2018-07-09T02:14:54.498Z,76.28
2018-07-09T02:15:54.454Z,76.31
2018-07-09T02:16:54.442Z,76.31
2018-07-09T02:17:54.428Z,76.72
2018-07-09T02:18:54.416Z,77.53
2018-07-09T02:19:54.409Z,77.23
2018-07-09T02:20:54.421Z,76.82
2018-07-09T02:21:54.385Z,77.13
2018-07-09T02:22:54.371Z,77.44
2018-07-09T02:23:54.361Z,77.37
2018-07-09T02:24:54.349Z,76.82
2018-07-09T02:25:54.368Z,76.92
2018-07-09T02:26:54.324Z,77.03
2018-07-09T02:27:54.320Z,77.33
2018-07-09T02:28:54.303Z,77.74
2018-07-09T02:29:54.295Z,77.78
2018-07-09T02:30:54.336Z,77.37
2018-07-09T02:31:54.303Z,77.37
2018-07-09T02:32:54.260Z,78.28
2018-07-09T02:33:54.241Z,78.59
2018-07-09T02:34:54.230Z,77.47
2018-07-09T02:35:54.222Z,78.32
2018-07-09T02:36:54.208Z,78.28
2018-07-09T02:37:54.227Z,78.08
2018-07-09T02:38:54.192Z,78.08
2018-07-09T02:39:54.173Z,78.42
2018-07-09T02:40:54.171Z,79.54
2018-07-09T02:41:54.154Z,78.83
2018-07-09T02:42:54.201Z,78.93
2018-07-09T02:43:54.125Z,79.54
2018-07-09T02:44:54.119Z,79.24
2018-07-09T02:45:54.110Z,79.64
2018-07-09T02:46:54.097Z,79.34
2018-07-09T02:47:54.081Z,79.24
2018-07-09T02:48:54.100Z,79.24
2018-07-09T02:49:54.065Z,79.79
2018-07-09T02:50:54.054Z,79.68
2018-07-09T02:51:54.039Z,79.58
2018-07-09T02:52:54.025Z,80.29
2018-07-09T02:53:54.014Z,80.29
2018-07-09T02:54:54.021Z,80.50
2018-07-09T02:55:53.995Z,80.40
2018-07-09T02:56:53.982Z,80.29
2018-07-09T02:57:53.976Z,80.50
2018-07-09T02:58:53.989Z,80.70
2018-07-09T02:59:53.949Z,81.04
2018-07-09T03:00:53.964Z,80.50
2018-07-09T03:01:53.927Z,80.50
2018-07-09T03:02:53.911Z,80.60
2018-07-09T03:03:53.898Z,81.45
2018-07-09T03:04:53.907Z,81.04
2018-07-09T03:05:53.876Z,80.23
2018-07-09T03:06:53.861Z,80.54
2018-07-09T03:07:53.856Z,80.74
2018-07-09T03:08:53.873Z,81.25
2018-07-09T03:09:53.826Z,81.35
2018-07-09T03:10:53.863Z,81.25
2018-07-09T03:11:53.807Z,81.41
2018-07-09T03:12:53.791Z,81.45
2018-07-09T03:13:53.777Z,80.94
2018-07-09T03:14:53.805Z,80.54
2018-07-09T03:15:53.752Z,81.35
2018-07-09T03:16:53.749Z,81.04
2018-07-09T03:17:53.731Z,81.45
2018-07-09T03:18:53.722Z,81.15
2018-07-09T03:19:53.707Z,81.39
2018-07-09T03:20:53.730Z,81.29
2018-07-09T03:21:53.685Z,81.29
2018-07-09T03:22:53.671Z,80.78
2018-07-09T03:23:53.664Z,81.18
2018-07-09T03:24:53.649Z,81.49
2018-07-09T03:25:53.639Z,81.59
2018-07-09T03:26:53.649Z,81.49
2018-07-09T03:27:53.611Z,80.98
2018-07-09T03:28:53.603Z,81.29
2018-07-09T03:29:53.594Z,81.90
2018-07-09T03:30:53.581Z,81.94
2018-07-09T03:31:53.564Z,81.94
2018-07-09T03:32:53.580Z,82.04
2018-07-09T03:33:53.548Z,81.94
2018-07-09T03:34:53.539Z,81.94
2018-07-09T03:35:53.516Z,81.94
2018-07-09T03:36:53.507Z,82.14
2018-07-09T03:37:53.496Z,82.55
2018-07-09T03:38:53.509Z,82.55
2018-07-09T03:39:53.478Z,82.96
2018-07-09T03:40:53.461Z,82.55
2018-07-09T03:41:53.446Z,82.65
2018-07-09T03:42:53.435Z,82.35
2018-07-09T03:43:53.425Z,82.45
2018-07-09T03:44:53.443Z,82.45
2018-07-09T03:45:53.396Z,82.96
2018-07-09T03:46:53.386Z,83.37
2018-07-09T03:47:53.378Z,83.26
2018-07-09T03:48:53.369Z,83.26
2018-07-09T03:49:53.348Z,83.40
2018-07-09T03:50:53.359Z,83.71
2018-07-09T03:51:53.334Z,83.26
2018-07-09T03:52:53.323Z,83.51
2018-07-09T03:53:53.305Z,83.57
2018-07-09T03:54:53.298Z,83.47
2018-07-09T03:55:53.316Z,83.37
2018-07-09T03:56:53.269Z,83.26
2018-07-09T03:57:53.261Z,83.26
2018-07-09T03:58:53.242Z,83.67
2018-07-09T03:59:53.242Z,83.47
2018-07-09T04:00:53.226Z,83.78
2018-07-09T04:01:53.248Z,83.71
2018-07-09T04:02:53.201Z,83.71
2018-07-09T04:03:53.187Z,83.57
2018-07-09T04:04:53.179Z,83.87
2018-07-09T04:05:53.163Z,84.18
2018-07-09T04:06:53.157Z,84.28
2018-07-09T04:07:53.160Z,84.28
2018-07-09T04:08:53.134Z,84.01
2018-07-09T04:09:53.118Z,83.98
2018-07-09T04:10:53.100Z,83.87
2018-07-09T04:11:53.099Z,84.01
2018-07-09T04:12:53.118Z,84.28
2018-07-09T04:13:53.068Z,84.12
2018-07-09T04:14:53.064Z,84.18
2018-07-09T04:15:53.048Z,84.42
2018-07-09T04:16:53.041Z,84.22
2018-07-09T04:17:53.021Z,84.28
2018-07-09T04:18:53.041Z,84.63
2018-07-09T04:19:53.001Z,84.53
2018-07-09T04:20:52.987Z,84.39
2018-07-09T04:21:52.976Z,84.28
2018-07-09T04:22:52.958Z,84.28
2018-07-09T04:23:52.955Z,84.69
2018-07-09T04:24:52.967Z,85.21
2018-07-09T04:25:52.933Z,85.30
2018-07-09T04:26:52.913Z,85.10
2018-07-09T04:27:52.907Z,84.90
2018-07-09T04:28:52.897Z,85.10
2018-07-09T04:29:52.876Z,85.10
2018-07-09T04:30:52.892Z,85.10
2018-07-09T04:31:52.861Z,84.90
2018-07-09T04:32:52.845Z,84.80
2018-07-09T04:33:52.831Z,86.22
2018-07-09T04:34:52.822Z,85.51
2018-07-09T04:35:52.809Z,85.06
2018-07-09T04:36:52.825Z,84.90
2018-07-09T04:37:52.865Z,84.90
2018-07-09T04:38:52.779Z,84.75
2018-07-09T04:39:52.757Z,84.55
2018-07-09T04:40:52.748Z,84.66
2018-07-09T04:41:52.740Z,84.86
2018-07-09T04:42:52.753Z,85.21
2018-07-09T04:43:52.721Z,84.86
2018-07-09T04:44:52.703Z,85.06
2018-07-09T04:45:52.689Z,84.75
2018-07-09T04:46:52.687Z,85.06
2018-07-09T04:47:52.667Z,85.27
2018-07-09T04:48:52.684Z,85.27
2018-07-09T04:49:52.640Z,85.06
2018-07-09T04:50:52.628Z,84.75
2018-07-09T04:51:52.619Z,84.34
2018-07-09T04:52:52.611Z,85.06
2018-07-09T04:53:52.591Z,85.37
2018-07-09T04:54:52.615Z,85.27
2018-07-09T04:55:52.577Z,86.18
2018-07-09T04:56:52.563Z,85.37
2018-07-09T04:57:52.550Z,84.92
2018-07-09T04:58:52.537Z,85.06
2018-07-09T04:59:52.528Z,85.33
2018-07-09T05:00:52.546Z,85.33
2018-07-09T05:01:52.505Z,85.37
2018-07-09T05:02:52.488Z,85.06
2018-07-09T05:03:52.485Z,85.13
2018-07-09T05:04:52.471Z,84.92
2018-07-09T05:05:52.463Z,84.92
2018-07-09T05:06:52.473Z,84.61
2018-07-09T05:07:52.439Z,84.61
2018-07-09T05:08:52.421Z,84.72
2018-07-09T05:09:52.417Z,84.11
2018-07-09T05:10:52.407Z,84.11
2018-07-09T05:11:52.394Z,84.20
2018-07-09T05:12:52.441Z,83.86
2018-07-09T05:13:52.367Z,83.65
2018-07-09T05:14:52.354Z,83.45
2018-07-09T05:15:52.347Z,82.64
2018-07-09T05:16:52.334Z,83.72
2018-07-09T05:17:52.320Z,83.45
2018-07-09T05:18:52.342Z,83.86
2018-07-09T05:19:52.300Z,84.06
2018-07-09T05:20:52.290Z,83.45
2018-07-09T05:21:52.270Z,83.72
2018-07-09T05:22:52.263Z,84.43
2018-07-09T05:23:52.247Z,83.62
2018-07-09T05:24:52.272Z,83.62
2018-07-09T05:25:52.230Z,83.62
2018-07-09T05:26:52.216Z,83.72
2018-07-09T05:27:52.211Z,83.01
2018-07-09T05:28:52.191Z,82.29
2018-07-09T05:29:52.216Z,81.68
2018-07-09T05:30:52.173Z,81.24
2018-07-09T05:31:52.166Z,80.05
2018-07-09T05:32:52.151Z,81.04
2018-07-09T05:33:52.143Z,79.71
2018-07-09T05:34:52.121Z,81.40
2018-07-09T05:35:52.138Z,80.29
2018-07-09T05:36:52.100Z,80.29
2018-07-09T05:37:52.089Z,81.30
2018-07-09T05:38:52.183Z,80.59
2018-07-09T05:39:52.075Z,81.06
2018-07-09T05:40:52.081Z,81.20
2018-07-09T05:41:52.050Z,81.16
2018-07-09T05:42:52.033Z,81.16
2018-07-09T05:43:52.019Z,80.51
2018-07-09T05:44:52.019Z,79.02
2018-07-09T05:45:52.023Z,79.19
2018-07-09T05:46:52.069Z,79.39
2018-07-09T05:47:51.975Z,79.80
2018-07-09T05:48:51.980Z,79.60
2018-07-09T05:49:51.962Z,79.70
2018-07-09T05:50:51.975Z,79.66
2018-07-09T05:51:51.939Z,79.90
2018-07-09T05:52:51.923Z,79.97
2018-07-09T05:53:51.911Z,79.66
2018-07-09T05:54:51.899Z,79.46
2018-07-09T05:55:51.882Z,78.95
2018-07-09T05:56:51.914Z,77.94
2018-07-09T05:57:51.859Z,78.14
2018-07-09T05:58:51.865Z,77.19
2018-07-09T05:59:51.841Z,77.39
2018-07-09T06:00:51.839Z,76.78
2018-07-09T06:01:51.816Z,75.26
2018-07-09T06:02:51.836Z,76.85
2018-07-09T06:03:51.794Z,77.05
2018-07-09T06:04:51.784Z,76.34
2018-07-09T06:05:51.772Z,75.93
2018-07-09T06:06:51.760Z,74.10
2018-07-09T06:07:51.748Z,75.32
2018-07-09T06:08:51.771Z,73.39
2018-07-09T06:09:51.725Z,73.09
2018-07-09T06:10:51.715Z,72.85
2018-07-09T06:11:51.706Z,73.66
2018-07-09T06:12:51.687Z,72.92
2018-07-09T06:13:51.682Z,72.89
2018-07-09T06:14:51.685Z,72.99
2018-07-09T06:15:51.652Z,72.28
2018-07-09T06:16:51.648Z,71.47
2018-07-09T06:17:51.629Z,70.45
2018-07-09T06:18:51.627Z,69.81
2018-07-09T06:19:51.642Z,69.00
2018-07-09T06:20:51.596Z,68.97
2018-07-09T06:21:51.585Z,70.49
2018-07-09T06:22:51.572Z,69.65
2018-07-09T06:23:51.561Z,68.90
2018-07-09T06:24:51.547Z,67.76
2018-07-09T06:25:51.566Z,67.55
2018-07-09T06:26:51.528Z,67.15
2018-07-09T06:27:51.517Z,66.14
2018-07-09T06:28:51.504Z,65.00
2018-07-09T06:29:51.491Z,64.97
2018-07-09T06:30:51.519Z,64.87
2018-07-09T06:31:51.470Z,65.27
2018-07-09T06:32:51.460Z,63.82
2018-07-09T06:33:51.457Z,63.79
2018-07-09T06:34:51.436Z,61.75
2018-07-09T06:35:51.429Z,62.28
2018-07-09T06:36:51.441Z,61.85
2018-07-09T06:37:51.402Z,60.71
2018-07-09T06:38:51.387Z,60.98
2018-07-09T06:39:51.375Z,60.75
2018-07-09T06:40:51.366Z,60.35
2018-07-09T06:41:51.358Z,58.54
2018-07-09T06:42:51.367Z,59.31
2018-07-09T06:43:51.337Z,59.11
2018-07-09T06:44:51.317Z,58.31
2018-07-09T06:45:51.315Z,58.28
2018-07-09T06:46:51.295Z,58.75
2018-07-09T06:47:51.316Z,58.15
2018-07-09T06:48:51.282Z,57.22
2018-07-09T06:49:51.264Z,56.92
2018-07-09T06:50:51.258Z,56.79
2018-07-09T06:51:51.240Z,56.99
2018-07-09T06:52:51.237Z,56.59
2018-07-09T06:53:51.252Z,55.08
2018-07-09T06:54:51.208Z,54.85
2018-07-09T06:55:51.276Z,55.33
2018-07-09T06:56:51.188Z,55.60
2018-07-09T06:57:51.180Z,52.80
2018-07-09T06:58:51.160Z,53.80
2018-07-09T06:59:51.172Z,52.09
2018-07-09T07:00:51.145Z,51.46
2018-07-09T07:01:51.125Z,51.87
2018-07-09T07:02:51.123Z,52.84
2018-07-09T07:03:51.110Z,50.34
2018-07-09T07:04:51.114Z,50.63
2018-07-09T07:05:51.088Z,50.54
2018-07-09T07:06:51.067Z,50.01
2018-07-09T07:07:51.059Z,50.62
2018-07-09T07:08:51.157Z,49.81
2018-07-09T07:09:51.057Z,49.31
2018-07-09T07:10:51.021Z,49.79
2018-07-09T07:11:51.021Z,49.69
2018-07-09T07:12:51.007Z,49.79
2018-07-09T07:13:50.994Z,49.39
2018-07-09T07:14:51.012Z,50.09
2018-07-09T07:15:50.972Z,50.19
2018-07-09T07:16:50.962Z,50.37
2018-07-09T07:17:50.955Z,49.26
2018-07-09T07:18:50.931Z,48.16
2018-07-09T07:19:50.927Z,50.44
2018-07-09T07:20:50.944Z,49.24
2018-07-09T07:21:50.898Z,48.84
2018-07-09T07:22:50.896Z,48.61
2018-07-09T07:23:50.882Z,48.49
2018-07-09T07:24:50.869Z,48.67
2018-07-09T07:25:50.860Z,48.57
2018-07-09T07:26:50.865Z,47.37
2018-07-09T07:27:50.844Z,46.85
2018-07-09T07:28:50.823Z,47.42
2018-07-09T07:29:50.820Z,46.33
2018-07-09T07:30:50.835Z,45.43
2018-07-09T07:31:50.786Z,45.43
2018-07-09T07:32:50.859Z,44.71
2018-07-09T07:33:50.770Z,44.91
2018-07-09T07:34:50.756Z,46.19
2018-07-09T07:35:50.750Z,44.87
2018-07-09T07:36:50.756Z,45.86
2018-07-09T07:37:50.725Z,44.94
2018-07-09T07:38:50.714Z,44.05
2018-07-09T07:39:50.705Z,43.25
2018-07-09T07:40:50.718Z,44.72
2018-07-09T07:41:50.684Z,43.23
2018-07-09T07:42:50.664Z,43.11
2018-07-09T07:43:50.653Z,42.31
2018-07-09T07:44:50.661Z,43.63
2018-07-09T07:45:50.637Z,43.33
2018-07-09T07:46:50.658Z,42.81
2018-07-09T07:47:50.622Z,43.80
2018-07-09T07:48:50.598Z,43.68
2018-07-09T07:49:50.597Z,43.51
2018-07-09T07:50:50.576Z,42.39
2018-07-09T07:51:50.567Z,43.19
2018-07-09T07:52:50.585Z,42.69
2018-07-09T07:53:50.542Z,43.71
2018-07-09T07:54:50.543Z,42.91
2018-07-09T07:55:50.552Z,42.71
2018-07-09T07:56:50.550Z,42.71
2018-07-09T07:57:50.498Z,43.30
2018-07-09T07:58:50.490Z,43.21
2018-07-09T07:59:50.486Z,44.01
2018-07-09T08:00:50.471Z,43.08
2018-07-09T08:01:50.462Z,42.89
2018-07-09T08:02:50.486Z,42.89
2018-07-09T08:03:50.438Z,42.99
2018-07-09T08:04:50.423Z,43.08
2018-07-09T08:05:50.415Z,43.08
2018-07-09T08:06:50.406Z,43.29
2018-07-09T08:07:50.390Z,41.97
2018-07-09T08:08:50.418Z,41.77
2018-07-09T08:09:50.369Z,43.35
2018-07-09T08:10:50.360Z,42.17
2018-07-09T08:11:50.347Z,40.26
2018-07-09T08:13:51.359Z,39.86
2018-07-09T08:14:50.311Z,41.36
2018-07-09T08:15:50.306Z,41.55
2018-07-09T08:16:50.298Z,42.13
2018-07-09T08:17:50.285Z,41.24
2018-07-09T08:18:50.270Z,40.34
2018-07-09T08:19:50.279Z,40.54
2018-07-09T08:20:50.253Z,40.14
2018-07-09T08:21:50.244Z,40.33
2018-07-09T08:22:50.233Z,40.74
2018-07-09T08:23:50.231Z,40.24
2018-07-09T08:24:50.336Z,40.03
2018-07-09T08:25:50.200Z,41.22
2018-07-09T08:26:50.181Z,40.03
2018-07-09T08:27:50.173Z,39.33
2018-07-09T08:28:50.165Z,40.30
2018-07-09T08:29:50.302Z,41.09
2018-07-09T08:30:50.175Z,40.50
2018-07-09T08:31:50.132Z,40.22
2018-07-09T08:32:50.123Z,40.74
2018-07-09T08:33:50.110Z,40.52
2018-07-09T08:34:50.102Z,41.42
2018-07-09T08:35:50.086Z,40.92
2018-07-09T08:36:50.101Z,40.54
2018-07-09T08:37:50.083Z,40.33
2018-07-09T08:38:50.056Z,39.73
2018-07-09T08:39:50.045Z,39.81
2018-07-09T08:40:50.032Z,39.71
2018-07-09T08:41:50.057Z,38.81
2018-07-09T08:42:50.010Z,38.70
2018-07-09T08:43:49.996Z,40.58
2018-07-09T08:44:49.997Z,40.96
2018-07-09T08:45:49.974Z,39.28
2018-07-09T08:47:59.425Z,40.05
2018-07-09T08:48:58.677Z,38.26
2018-07-09T08:49:58.659Z,38.76
2018-07-09T08:50:58.646Z,38.26
2018-07-09T08:51:58.640Z,39.36
2018-07-09T08:52:58.655Z,39.15
2018-07-09T08:53:58.622Z,38.26
2018-07-09T08:54:58.611Z,39.85
2018-07-09T08:55:58.593Z,38.56
2018-07-09T08:56:58.590Z,37.87
2018-07-09T08:57:58.604Z,37.26
2018-07-09T08:58:58.561Z,37.15
2018-07-09T08:59:58.560Z,37.27
2018-07-09T09:00:58.536Z,36.86
2018-07-09T09:01:58.539Z,37.27
2018-07-09T09:02:58.516Z,38.17
2018-07-09T09:03:58.513Z,37.07
2018-07-09T09:04:58.501Z,37.96
2018-07-09T09:05:58.487Z,36.68
2018-07-09T09:06:58.477Z,37.27
2018-07-09T09:07:58.471Z,36.77
2018-07-09T09:08:58.463Z,38.74
2018-07-09T09:09:58.468Z,37.63
2018-07-09T09:10:58.438Z,37.71
2018-07-09T09:11:58.424Z,37.81
2018-07-09T09:12:58.417Z,37.00
2018-07-09T09:13:58.435Z,35.80
2018-07-09T09:14:58.398Z,35.38
2018-07-09T09:15:58.380Z,34.50
2018-07-09T09:16:58.380Z,35.96
2018-07-09T09:17:58.357Z,36.55
2018-07-09T09:18:58.350Z,35.75
2018-07-09T09:19:58.376Z,35.05
2018-07-09T09:20:58.331Z,34.86
2018-07-09T09:21:58.317Z,34.44
2018-07-09T09:22:58.306Z,34.25
2018-07-09T09:23:58.299Z,34.84
2018-07-09T09:24:58.286Z,33.56
2018-07-09T09:25:58.315Z,34.23
2018-07-09T09:26:58.274Z,34.53
2018-07-09T09:27:58.255Z,35.69
2018-07-09T09:28:58.256Z,35.10
2018-07-09T09:29:58.243Z,33.31
2018-07-09T09:30:58.231Z,33.98
2018-07-09T09:31:58.222Z,33.10
2018-07-09T09:32:58.219Z,33.28
2018-07-09T09:33:58.198Z,32.49
2018-07-09T09:34:58.184Z,33.87
2018-07-09T09:35:58.185Z,33.97
2018-07-09T09:36:58.210Z,32.69
2018-07-09T09:37:58.156Z,32.49
2018-07-09T09:38:58.205Z,33.86
2018-07-09T09:39:58.136Z,33.36
2018-07-09T09:40:58.127Z,31.69
2018-07-09T09:41:58.120Z,31.88
2018-07-09T09:42:58.149Z,31.49
2018-07-09T09:43:58.101Z,33.86
2018-07-09T09:44:58.087Z,33.15
2018-07-09T09:45:58.085Z,32.54
2018-07-09T09:46:58.071Z,32.45
2018-07-09T09:47:58.064Z,32.72
2018-07-09T09:48:58.081Z,33.00
2018-07-09T09:49:58.039Z,31.90
2018-07-09T09:50:58.039Z,31.38
2018-07-09T09:51:58.020Z,31.19
2018-07-09T09:52:58.018Z,30.00
2018-07-09T09:53:58.034Z,30.19
2018-07-09T09:54:57.996Z,30.49
2018-07-09T09:55:57.986Z,28.43
2018-07-09T09:56:57.984Z,28.15
2018-07-09T09:57:57.970Z,31.79
2018-07-09T09:58:57.963Z,31.30
2018-07-09T09:59:57.975Z,31.20
2018-07-09T10:00:57.942Z,31.79
2018-07-09T10:01:57.928Z,32.78
2018-07-09T10:02:57.922Z,31.30
2018-07-09T10:03:57.908Z,32.78
2018-07-09T10:04:57.893Z,31.10
2018-07-09T10:05:57.949Z,32.48
2018-07-09T10:06:57.875Z,29.82
2018-07-09T10:07:57.871Z,31.40
2018-07-09T10:08:57.859Z,30.02
2018-07-09T10:09:57.846Z,31.40
2018-07-09T10:10:57.840Z,30.14
2018-07-09T10:11:57.859Z,30.73
2018-07-09T10:12:57.821Z,31.51
2018-07-09T10:13:57.807Z,32.61
2018-07-09T10:14:57.794Z,30.94
2018-07-09T10:15:57.791Z,33.02
2018-07-09T10:16:57.884Z,31.45
2018-07-09T10:17:57.804Z,31.25
2018-07-09T10:18:57.756Z,31.33
2018-07-09T10:19:57.746Z,32.33
2018-07-09T10:20:57.734Z,31.73
2018-07-09T10:21:57.726Z,31.32
2018-07-09T10:22:57.856Z,31.60
2018-07-09T10:23:57.718Z,30.81
2018-07-09T10:24:57.694Z,30.70
2018-07-09T10:25:57.681Z,30.29
2018-07-09T10:26:57.673Z,30.08
2018-07-09T10:27:57.666Z,30.16
2018-07-09T10:28:57.694Z,29.18
2018-07-09T10:29:57.654Z,27.70
2018-07-09T10:30:57.644Z,29.56
2018-07-09T10:31:57.632Z,28.77
2018-07-09T10:32:57.627Z,28.77
2018-07-09T10:33:57.615Z,29.14
2018-07-09T10:34:57.639Z,28.74
2018-07-09T10:35:57.591Z,27.56
2018-07-09T10:36:57.586Z,26.97
2018-07-09T10:37:57.574Z,28.63
2018-07-09T10:38:57.564Z,26.86
2018-07-09T10:39:57.561Z,27.91
2018-07-09T10:40:57.579Z,27.13
2018-07-09T10:41:57.538Z,26.74
2018-07-09T10:42:57.529Z,26.74
2018-07-09T10:43:57.516Z,27.13
2018-07-09T10:44:57.509Z,25.26
2018-07-09T10:45:57.536Z,25.46
2018-07-09T10:46:57.497Z,27.41
2018-07-09T10:47:57.482Z,27.72
2018-07-09T10:48:57.476Z,26.93
2018-07-09T10:49:57.466Z,27.33
2018-07-09T10:50:57.456Z,27.33
2018-07-09T10:51:57.476Z,27.93
2018-07-09T10:52:57.433Z,28.05
2018-07-09T10:53:57.428Z,28.44
2018-07-09T10:54:57.411Z,27.97
2018-07-09T10:55:57.408Z,29.24
2018-07-09T10:56:57.389Z,29.44
2018-07-09T10:57:57.417Z,27.48
2018-07-09T10:58:57.369Z,28.57
2018-07-09T10:59:57.363Z,28.67
2018-07-09T11:00:57.352Z,28.79
2018-07-09T11:01:57.344Z,30.36
2018-07-09T11:02:57.327Z,29.79
2018-07-09T11:03:57.354Z,30.27
2018-07-09T11:04:57.306Z,30.29
2018-07-09T11:05:57.305Z,31.77
2018-07-09T11:06:57.290Z,29.62
2018-07-09T11:07:57.282Z,30.52
2018-07-09T11:08:57.300Z,31.30
2018-07-09T11:09:57.261Z,30.93
2018-07-09T11:10:57.252Z,31.71
2018-07-09T11:11:57.233Z,32.21
2018-07-09T11:12:57.230Z,32.33
2018-07-09T11:13:57.210Z,32.62
2018-07-09T11:14:57.244Z,32.74
2018-07-09T11:15:57.201Z,32.65
2018-07-09T11:16:57.187Z,32.36
2018-07-09T11:17:57.171Z,32.87
2018-07-09T11:18:57.159Z,33.97
2018-07-09T11:19:57.152Z,34.18
2018-07-09T11:20:57.162Z,34.79
2018-07-09T11:21:57.137Z,34.59
2018-07-09T11:22:57.114Z,34.61
2018-07-09T11:23:57.112Z,35.69
2018-07-09T11:24:57.096Z,35.22
2018-07-09T11:25:57.122Z,35.81
2018-07-09T11:26:57.076Z,36.00
2018-07-09T11:27:57.068Z,35.61
2018-07-09T11:28:57.055Z,34.92
2018-07-09T11:29:57.040Z,34.72
2018-07-09T11:30:57.031Z,35.81
2018-07-09T11:31:57.050Z,35.81
2018-07-09T11:32:57.014Z,36.30
2018-07-09T11:33:56.994Z,35.71
2018-07-09T11:34:56.984Z,35.60
2018-07-09T11:35:56.990Z,35.99
2018-07-09T11:36:56.968Z,35.60
2018-07-09T11:37:56.977Z,35.18
2018-07-09T11:38:56.943Z,35.48
2018-07-09T11:39:56.936Z,35.58
2018-07-09T11:40:56.926Z,34.49
2018-07-09T11:41:56.908Z,35.66
2018-07-09T11:42:56.937Z,35.66
2018-07-09T11:43:56.885Z,35.36
2018-07-09T11:44:56.878Z,35.38
2018-07-09T11:45:56.868Z,34.18
2018-07-09T11:46:56.857Z,35.68
2018-07-09T11:47:56.854Z,34.87
2018-07-09T11:48:56.859Z,35.77
2018-07-09T11:49:56.829Z,34.10
2018-07-09T11:50:56.818Z,35.10
2018-07-09T11:51:56.797Z,36.09
2018-07-09T11:52:56.790Z,35.79
2018-07-09T11:53:56.815Z,36.19
2018-07-09T11:54:56.771Z,36.00
2018-07-09T11:55:56.757Z,35.91
2018-07-09T11:56:56.743Z,36.00
2018-07-09T11:57:56.741Z,36.00
2018-07-09T11:58:56.753Z,37.29
2018-07-09T11:59:56.747Z,36.42
2018-07-09T12:00:56.704Z,36.93
2018-07-09T12:01:56.762Z,37.34
2018-07-09T12:02:56.689Z,36.75
2018-07-09T12:03:56.666Z,37.07
2018-07-09T12:04:56.665Z,37.85
2018-07-09T12:05:56.695Z,38.47
2018-07-09T12:06:56.633Z,38.37
2018-07-09T12:07:56.631Z,38.17
2018-07-09T12:08:56.611Z,38.65
2018-07-09T12:09:56.650Z,38.94
2018-07-09T12:10:56.595Z,38.15
2018-07-09T12:11:56.616Z,38.75
2018-07-09T12:12:56.576Z,37.66
2018-07-09T12:13:56.562Z,38.06
2018-07-09T12:14:56.548Z,38.35
2018-07-09T12:15:56.576Z,38.33
2018-07-09T12:16:56.529Z,38.02
2018-07-09T12:17:56.518Z,36.93
2018-07-09T12:18:56.501Z,37.30
2018-07-09T12:19:56.499Z,36.32
2018-07-09T12:20:56.479Z,37.21
2018-07-09T12:21:56.511Z,36.50
2018-07-09T12:22:56.461Z,36.99
2018-07-09T12:23:56.453Z,36.60
2018-07-09T12:24:56.439Z,37.09
2018-07-09T12:25:56.431Z,37.19
2018-07-09T12:26:56.414Z,37.17
2018-07-09T12:27:56.436Z,36.88
2018-07-09T12:28:56.454Z,36.17
2018-07-09T12:29:56.409Z,36.19
2018-07-09T12:30:56.371Z,36.46
2018-07-09T12:31:56.368Z,36.84
2018-07-09T12:32:56.372Z,35.66
2018-07-09T12:33:56.347Z,35.36
2018-07-09T12:34:56.332Z,36.15
2018-07-09T12:35:56.317Z,36.45
2018-07-09T12:36:56.311Z,35.35
2018-07-09T12:37:56.326Z,35.44
2018-07-09T12:38:56.285Z,35.35
2018-07-09T12:39:56.283Z,35.64
2018-07-09T12:40:56.269Z,36.15
2018-07-09T12:41:56.259Z,35.66
2018-07-09T12:42:56.277Z,37.04
2018-07-09T12:43:56.238Z,36.25
2018-07-09T12:44:56.229Z,36.53
2018-07-09T12:45:56.208Z,36.13
2018-07-09T12:46:56.204Z,36.04
2018-07-09T12:47:56.227Z,35.84
2018-07-09T12:48:56.187Z,35.43
2018-07-09T12:49:56.169Z,35.53
2018-07-09T12:50:56.157Z,35.63
2018-07-09T12:51:56.148Z,35.63
2018-07-09T12:52:56.141Z,35.13
2018-07-09T12:53:56.161Z,35.61
2018-07-09T12:54:56.122Z,35.31